Time;durP1;ratioP1;P1;durP2;ratioP2;P2;SDS_P1;SDS_P2;PMS_P1;PMS_P2;Temp;Humidity;BMP_temperature;BMP_pressure;BME280_temperature;BME280_humidity;BME280_pressure;Samples;Min_cycle;Max_cycle;Signal;HPM_P1;HPM_P2
2022/09/24 00:00:00;;;;;;;;;4.00;3.00;;;25.08;101265.23;;;;117014;1193;25628;-60
2022/09/24 00:02:48;;;;;;;;;3.25;3.00;;;25.11;101258.52;;;;117030;1193;24761;-61
2022/09/24 00:05:17;;;;;;;;;5.50;4.25;;;25.12;101256.10;;;;117067;1193;24945;-60
2022/09/24 00:07:46;;;;;;;;;2.50;2.50;;;25.10;101258.39;;;;117022;1193;24864;-60
2022/09/24 00:10:15;;;;;;;;;7.00;5.00;;;25.09;101259.83;;;;117004;1193;26443;-61
2022/09/24 00:12:43;;;;;;;;;4.50;4.00;;;25.08;101259.31;;;;116914;1193;24894;-60
2022/09/24 00:15:12;;;;;;;;;3.00;2.67;;;25.07;101256.56;;;;117046;1193;24732;-60
2022/09/24 00:17:41;;;;;;;;;4.00;4.00;;;25.07;101256.41;;;;117074;1193;25040;-60
2022/09/24 00:20:11;;;;;;;;;4.25;3.00;;;25.06;101251.38;;;;117061;1193;24832;-61
2022/09/24 00:22:40;;;;;;;;;4.75;3.00;;;25.06;101245.71;;;;117038;1193;24969;-61
2022/09/24 00:27:55;;;;;;;;;6.50;4.50;;;25.05;101245.70;;;;117007;1194;25399;-61
2022/09/24 00:30:24;;;;;;;;;4.75;2.25;;;25.04;101242.84;;;;116834;1194;25122;-61
2022/09/24 00:32:53;;;;;;;;;3.75;3.75;;;25.02;101242.56;;;;116824;1195;25410;-61
2022/09/24 00:35:22;;;;;;;;;5.50;4.00;;;25.03;101243.82;;;;117023;1193;25249;-61
2022/09/24 00:37:51;;;;;;;;;4.00;4.00;;;25.03;101242.58;;;;116932;1194;25722;-61
2022/09/24 00:40:20;;;;;;;;;3.75;3.75;;;25.02;101243.17;;;;117065;1194;24790;-61
2022/09/24 00:42:49;;;;;;;;;3.75;2.75;;;25.03;101243.64;;;;117022;1193;25641;-61
2022/09/24 00:45:18;;;;;;;;;3.67;3.00;;;25.01;101241.36;;;;117050;1193;25649;-61
2022/09/24 00:47:48;;;;;;;;;4.00;3.00;;;25.02;101240.30;;;;117013;1193;24986;-61
2022/09/24 00:50:32;;;;;;;;;6.50;3.00;;;25.01;101236.08;;;;117032;1194;25316;-61
2022/09/24 00:53:05;;;;;;;;;4.75;3.00;;;25.04;101236.60;;;;117026;1194;25181;-61
2022/09/24 00:55:35;;;;;;;;;7.50;4.00;;;25.04;101239.77;;;;117031;1193;25703;-61
2022/09/24 00:58:06;;;;;;;;;5.00;4.00;;;25.04;101237.84;;;;117035;1192;25480;-61
2022/09/24 01:00:39;;;;;;;;;5.33;2.67;;;25.02;101234.91;;;;117036;1194;24929;-61
2022/09/24 01:03:12;;;;;;;;;7.00;4.00;;;25.01;101231.83;;;;117096;1193;25120;-61
2022/09/24 01:05:42;;;;;;;;;4.75;3.00;;;25.02;101228.85;;;;117109;1192;25664;-61
2022/09/24 01:08:15;;;;;;;;;3.50;3.25;;;25.01;101227.05;;;;117131;1193;25366;-62
2022/09/24 01:10:54;;;;;;;;;5.25;3.00;;;25.00;101229.46;;;;117084;1193;25594;-61
2022/09/24 01:13:45;;;;;;;;;5.25;5.00;;;25.00;101227.02;;;;117073;1193;25708;-59
2022/09/24 01:16:14;;;;;;;;;5.00;2.00;;;25.01;101222.70;;;;117132;1193;24678;-60
2022/09/24 01:19:12;;;;;;;;;5.50;3.75;;;24.99;101221.39;;;;117126;1192;25565;-61
2022/09/24 01:21:54;;;;;;;;;3.50;3.00;;;25.01;101226.09;;;;117145;1193;24846;-61
2022/09/24 01:24:47;;;;;;;;;3.25;3.00;;;24.99;101230.98;;;;117145;1191;25190;-61
2022/09/24 01:27:20;;;;;;;;;5.00;4.50;;;25.03;101231.23;;;;117122;1192;25421;-61
2022/09/24 01:30:02;;;;;;;;;4.00;2.00;;;25.03;101231.21;;;;117100;1191;24794;-60
2022/09/24 01:32:55;;;;;;;;;4.00;4.00;;;25.04;101230.27;;;;117020;1193;25139;-60
2022/09/24 01:35:35;;;;;;;;;5.50;4.25;;;25.08;101229.36;;;;117075;1192;24751;-60
2022/09/24 01:38:10;;;;;;;;;3.00;3.00;;;25.08;101228.80;;;;117074;1193;24929;-60
2022/09/24 01:40:40;;;;;;;;;3.67;3.67;;;25.06;101225.88;;;;117108;1192;25138;-60
2022/09/24 01:43:10;;;;;;;;;3.67;2.67;;;25.06;101231.35;;;;117041;1193;25003;-61
2022/09/24 01:45:39;;;;;;;;;5.00;2.75;;;25.03;101232.98;;;;117077;1193;25090;-61
2022/09/24 01:48:08;;;;;;;;;3.00;2.50;;;25.01;101234.07;;;;117054;1192;25420;-60
2022/09/24 01:50:44;;;;;;;;;3.00;3.00;;;25.00;101233.21;;;;117030;1193;25561;-60
2022/09/24 01:53:19;;;;;;;;;2.25;2.25;;;24.99;101232.20;;;;117072;1192;25281;-61
2022/09/24 01:55:52;;;;;;;;;3.33;3.00;;;25.01;101231.23;;;;117071;1192;25209;-61
2022/09/24 01:58:26;;;;;;;;;6.33;2.67;;;25.01;101234.35;;;;117083;1192;24782;-60
2022/09/24 02:01:04;;;;;;;;;2.25;2.25;;;24.99;101237.98;;;;117048;1192;25543;-61
2022/09/24 02:03:42;;;;;;;;;3.00;2.00;;;25.01;101242.72;;;;117099;1192;25220;-60
2022/09/24 02:06:25;;;;;;;;;4.67;3.00;;;25.01;101245.52;;;;117065;1192;25246;-61
2022/09/24 02:08:55;;;;;;;;;4.75;3.00;;;25.02;101246.05;;;;117055;1193;25599;-61
2022/09/24 02:11:25;;;;;;;;;5.00;5.00;;;25.01;101242.64;;;;117037;1193;24731;-60
2022/09/24 02:14:02;;;;;;;;;2.67;1.33;;;24.99;101245.41;;;;117033;1193;25571;-60
2022/09/24 02:16:45;;;;;;;;;5.00;4.00;;;24.99;101246.59;;;;116868;1193;25344;-60
2022/09/24 02:19:26;;;;;;;;;5.00;4.00;;;25.01;101245.91;;;;117058;1193;25056;-61
2022/09/24 02:21:54;;;;;;;;;3.00;3.00;;;25.02;101246.23;;;;117031;1194;24918;-61
2022/09/24 02:24:36;;;;;;;;;2.50;2.50;;;25.01;101249.67;;;;117066;1192;25031;-61
2022/09/24 02:27:05;;;;;;;;;3.50;3.00;;;25.00;101256.47;;;;117112;1192;25319;-61
2022/09/24 02:29:34;;;;;;;;;2.25;2.25;;;24.99;101258.48;;;;117050;1192;25348;-62
2022/09/24 02:32:05;;;;;;;;;3.50;3.00;;;24.97;101260.16;;;;117057;1193;25098;-61
2022/09/24 02:34:39;;;;;;;;;5.00;3.25;;;24.96;101256.59;;;;117060;1193;25636;-61
2022/09/24 02:37:11;;;;;;;;;4.33;4.33;;;24.95;101256.62;;;;117009;1194;25601;-61
2022/09/24 02:39:40;;;;;;;;;6.33;5.00;;;24.96;101260.19;;;;116985;1193;25375;-61
2022/09/24 02:42:12;;;;;;;;;4.50;4.00;;;24.95;101260.06;;;;117003;1192;25293;-61
2022/09/24 02:44:41;;;;;;;;;4.75;4.75;;;24.93;101256.77;;;;117030;1192;24763;-61
2022/09/24 02:47:10;;;;;;;;;5.25;4.50;;;24.95;101260.52;;;;117084;1193;24743;-61
2022/09/24 02:49:39;;;;;;;;;7.75;4.50;;;24.92;101261.77;;;;117041;1194;25208;-61
2022/09/24 02:52:09;;;;;;;;;8.25;5.00;;;24.91;101260.56;;;;116866;1194;25309;-61
2022/09/24 02:54:38;;;;;;;;;7.25;7.25;;;24.90;101258.44;;;;117057;1193;25243;-61
2022/09/24 02:57:06;;;;;;;;;7.25;6.00;;;24.88;101259.48;;;;116994;1194;25509;-61
2022/09/24 02:59:35;;;;;;;;;6.75;6.00;;;24.89;101263.77;;;;117042;1193;25292;-65
2022/09/24 03:02:04;;;;;;;;;7.25;6.50;;;24.88;101266.06;;;;117026;1194;25413;-64
2022/09/24 03:04:33;;;;;;;;;6.50;5.50;;;24.88;101264.45;;;;117093;1193;24718;-59
2022/09/24 03:07:02;;;;;;;;;9.00;7.00;;;24.87;101265.73;;;;117055;1193;25537;-61
2022/09/24 03:09:31;;;;;;;;;8.25;7.00;;;24.86;101268.16;;;;117116;1193;25547;-61
2022/09/24 03:12:00;;;;;;;;;8.00;7.50;;;24.86;101269.15;;;;116883;1191;25081;-61
2022/09/24 03:14:29;;;;;;;;;6.00;6.00;;;24.85;101273.74;;;;117144;1193;25035;-61
2022/09/24 03:16:58;;;;;;;;;5.00;5.00;;;24.85;101275.17;;;;116920;1193;25300;-61
2022/09/24 03:19:27;;;;;;;;;10.50;7.00;;;24.86;101276.81;;;;117109;1193;25044;-61
2022/09/24 03:21:55;;;;;;;;;7.75;7.00;;;24.86;101276.36;;;;117055;1192;25146;-60
2022/09/24 03:24:24;;;;;;;;;7.75;6.00;;;24.85;101276.41;;;;117063;1193;25034;-61
2022/09/24 03:26:53;;;;;;;;;9.00;7.00;;;24.84;101277.02;;;;117063;1192;25037;-61
2022/09/24 03:30:58;;;;;;;;;6.50;5.75;;;24.83;101276.86;;;;117044;1192;25655;-60
2022/09/24 03:32:10;;;;;;;;;8.75;6.75;;;24.87;101277.13;;;;117090;1193;25720;-61
2022/09/24 03:34:39;;;;;;;;;6.00;4.50;;;24.89;101278.74;;;;117055;1192;25011;-61
2022/09/24 03:37:08;;;;;;;;;7.00;6.00;;;24.87;101275.13;;;;117052;1193;24818;-61
2022/09/24 03:39:37;;;;;;;;;9.00;6.50;;;24.85;101276.67;;;;117088;1192;25178;-60
2022/09/24 03:42:05;;;;;;;;;7.00;5.00;;;24.85;101278.05;;;;117027;1194;25746;-61
2022/09/24 03:44:34;;;;;;;;;7.67;5.33;;;24.84;101282.10;;;;116924;1194;25384;-60
2022/09/24 03:47:03;;;;;;;;;7.00;5.75;;;24.82;101280.29;;;;117140;1193;25307;-60
2022/09/24 03:49:32;;;;;;;;;5.75;5.75;;;24.83;101283.98;;;;117116;1193;24877;-61
2022/09/24 03:52:01;;;;;;;;;7.00;5.75;;;24.82;101286.20;;;;117055;1193;25071;-61
2022/09/24 03:54:30;;;;;;;;;10.25;7.00;;;24.81;101283.51;;;;117176;1192;25005;-61
2022/09/24 03:56:59;;;;;;;;;4.00;3.67;;;24.79;101284.70;;;;117045;1193;25182;-59
2022/09/24 03:59:28;;;;;;;;;7.50;5.00;;;24.79;101281.78;;;;117102;1193;25514;-61
2022/09/24 04:01:57;;;;;;;;;5.50;4.75;;;24.79;101282.98;;;;117175;1191;25400;-61
2022/09/24 04:04:26;;;;;;;;;8.00;7.00;;;24.79;101288.64;;;;117174;1192;24805;-61
2022/09/24 04:06:55;;;;;;;;;9.75;6.75;;;24.79;101294.06;;;;117107;1193;25201;-62
2022/09/24 04:09:23;;;;;;;;;8.67;6.00;;;24.78;101297.31;;;;116928;1193;25622;-60
2022/09/24 04:11:52;;;;;;;;;7.75;7.75;;;24.77;101294.60;;;;117044;1192;25657;-61
2022/09/24 04:14:22;;;;;;;;;9.33;7.00;;;24.77;101296.08;;;;117078;1193;25208;-62
2022/09/24 04:16:51;;;;;;;;;10.25;6.00;;;24.77;101299.17;;;;117081;1194;24967;-63
2022/09/24 04:19:20;;;;;;;;;7.50;6.00;;;24.77;101297.28;;;;117054;1193;25359;-60
2022/09/24 04:21:49;;;;;;;;;8.67;7.33;;;24.76;101305.22;;;;117010;1194;25240;-60
2022/09/24 04:24:18;;;;;;;;;8.67;7.00;;;24.76;101312.17;;;;117039;1194;25642;-61
2022/09/24 04:26:47;;;;;;;;;8.00;5.00;;;24.77;101319.38;;;;117079;1193;25583;-61
2022/09/24 04:29:16;;;;;;;;;6.75;6.00;;;24.77;101315.70;;;;117069;1193;24726;-61
2022/09/24 04:31:45;;;;;;;;;9.00;7.00;;;24.76;101319.70;;;;117022;1194;25067;-60
2022/09/24 04:34:14;;;;;;;;;6.33;6.00;;;24.76;101326.31;;;;117049;1193;25017;-61
2022/09/24 04:36:43;;;;;;;;;7.00;6.67;;;24.75;101323.09;;;;117025;1193;25587;-66
2022/09/24 04:39:12;;;;;;;;;6.75;6.00;;;24.76;101327.30;;;;117018;1193;25380;-61
2022/09/24 04:41:41;;;;;;;;;9.00;7.50;;;24.76;101327.73;;;;116893;1193;25401;-61
2022/09/24 04:44:12;;;;;;;;;7.25;7.25;;;24.76;101332.40;;;;117055;1193;25470;-61
2022/09/24 04:46:41;;;;;;;;;11.50;5.50;;;24.77;101333.10;;;;117006;1193;24968;-61
2022/09/24 04:49:10;;;;;;;;;6.33;6.00;;;24.77;101329.56;;;;117018;1194;24826;-61
2022/09/24 04:51:39;;;;;;;;;5.67;5.67;;;24.77;101330.96;;;;117033;1193;24920;-61
2022/09/24 04:54:09;;;;;;;;;7.67;6.00;;;24.76;101328.66;;;;117054;1193;25729;-61
2022/09/24 04:56:38;;;;;;;;;7.00;4.00;;;24.77;101329.95;;;;117066;1194;25174;-61
2022/09/24 04:59:07;;;;;;;;;6.50;5.00;;;24.76;101327.48;;;;117012;1194;24885;-61
2022/09/24 05:01:36;;;;;;;;;11.00;8.00;;;24.77;101333.59;;;;117047;1193;24994;-61
2022/09/24 05:04:04;;;;;;;;;8.25;5.00;;;24.77;101334.75;;;;117059;1193;24968;-61
2022/09/24 05:06:35;;;;;;;;;8.75;7.25;;;24.76;101338.90;;;;117112;1192;25027;-61
2022/09/24 05:09:03;;;;;;;;;9.00;9.00;;;24.79;101338.59;;;;117082;1192;25589;-61
2022/09/24 05:11:39;;;;;;;;;8.00;7.00;;;24.79;101344.85;;;;117026;1193;25324;-61
2022/09/24 05:14:07;;;;;;;;;8.00;8.00;;;24.79;101346.52;;;;117093;1193;25138;-61
2022/09/24 05:16:36;;;;;;;;;6.00;5.75;;;24.80;101345.39;;;;117019;1193;25585;-65
2022/09/24 05:19:05;;;;;;;;;7.33;6.33;;;24.78;101345.94;;;;117074;1192;25573;-60
2022/09/24 05:21:34;;;;;;;;;8.50;7.25;;;24.78;101344.13;;;;117034;1193;24965;-61
2022/09/24 05:24:03;;;;;;;;;6.00;6.00;;;24.79;101348.34;;;;117020;1193;25404;-61
2022/09/24 05:29:19;;;;;;;;;5.33;5.33;;;24.79;101354.05;;;;117045;1193;24830;-61
2022/09/24 05:31:48;;;;;;;;;7.50;5.00;;;24.79;101349.10;;;;117063;1193;25099;-61
2022/09/24 05:34:17;;;;;;;;;8.00;7.67;;;24.78;101352.46;;;;117109;1191;25468;-60
2022/09/24 05:36:46;;;;;;;;;9.00;7.00;;;24.79;101356.19;;;;117017;1193;25622;-62
2022/09/24 05:39:15;;;;;;;;;8.00;6.00;;;24.79;101360.20;;;;117112;1191;25501;-61
2022/09/24 05:41:44;;;;;;;;;7.25;5.75;;;24.80;101356.19;;;;117189;1191;25795;-60
2022/09/24 05:44:13;;;;;;;;;7.33;7.33;;;24.80;101360.08;;;;117156;1191;25472;-60
2022/09/24 05:46:41;;;;;;;;;12.75;7.25;;;24.80;101366.08;;;;117147;1191;24798;-60
2022/09/24 05:49:11;;;;;;;;;8.25;8.25;;;24.79;101365.09;;;;117206;1191;25676;-60
2022/09/24 05:51:39;;;;;;;;;8.25;7.75;;;24.80;101367.27;;;;117195;1191;25635;-60
2022/09/24 05:54:10;;;;;;;;;10.00;6.25;;;24.81;101375.84;;;;117058;1193;25514;-60
2022/09/24 05:56:39;;;;;;;;;9.25;6.25;;;24.81;101376.16;;;;117129;1192;25637;-61
2022/09/24 05:59:08;;;;;;;;;8.25;8.25;;;24.82;101382.36;;;;117113;1192;25307;-60
2022/09/24 06:01:37;;;;;;;;;10.00;7.00;;;24.81;101382.86;;;;117182;1192;25517;-61
2022/09/24 06:04:06;;;;;;;;;7.67;7.67;;;24.83;101381.00;;;;117189;1191;24939;-61
2022/09/24 06:06:36;;;;;;;;;9.00;5.25;;;24.83;101377.45;;;;117165;1191;25424;-61
2022/09/24 06:09:07;;;;;;;;;8.25;8.25;;;24.83;101382.45;;;;117197;1190;24849;-60
2022/09/24 06:11:37;;;;;;;;;9.67;5.67;;;24.86;101382.30;;;;117181;1190;25519;-61
2022/09/24 06:14:08;;;;;;;;;9.00;7.50;;;24.87;101382.81;;;;117198;1191;25589;-60
2022/09/24 06:16:37;;;;;;;;;11.00;8.00;;;24.88;101380.95;;;;117160;1192;24794;-61
2022/09/24 06:19:06;;;;;;;;;10.25;8.50;;;24.90;101381.23;;;;117058;1192;24982;-63
2022/09/24 06:21:35;;;;;;;;;6.25;6.00;;;24.91;101383.36;;;;117062;1193;24801;-61
2022/09/24 06:24:04;;;;;;;;;10.25;7.00;;;24.94;101386.47;;;;117043;1193;25318;-61
2022/09/24 06:26:35;;;;;;;;;7.25;7.25;;;24.95;101393.91;;;;116975;1193;25016;-63
2022/09/24 06:29:03;;;;;;;;;6.75;5.00;;;24.98;101398.48;;;;117126;1193;24747;-65
2022/09/24 06:31:33;;;;;;;;;7.33;4.33;;;24.97;101403.43;;;;117019;1193;25592;-64
2022/09/24 06:34:02;;;;;;;;;4.33;4.33;;;25.01;101401.10;;;;117071;1193;25116;-59
2022/09/24 06:36:31;;;;;;;;;9.00;9.00;;;25.03;101399.04;;;;117093;1193;25009;-60
2022/09/24 06:39:00;;;;;;;;;8.50;6.75;;;25.02;101400.13;;;;117035;1193;25201;-60
2022/09/24 06:41:29;;;;;;;;;6.75;5.00;;;25.04;101401.80;;;;117061;1193;25279;-65
2022/09/24 06:43:58;;;;;;;;;7.50;7.50;;;25.06;101402.56;;;;117037;1193;25225;-60
2022/09/24 06:46:27;;;;;;;;;9.00;6.75;;;25.07;101404.58;;;;117141;1193;25284;-60
2022/09/24 06:48:56;;;;;;;;;5.00;5.00;;;25.07;101408.56;;;;117129;1191;25261;-60
2022/09/24 06:51:24;;;;;;;;;6.33;5.00;;;25.10;101411.42;;;;117033;1193;25284;-60
2022/09/24 06:53:53;;;;;;;;;7.25;5.50;;;25.11;101408.17;;;;116983;1193;25929;-59
2022/09/24 06:56:22;;;;;;;;;5.67;4.00;;;25.11;101417.73;;;;117003;1193;25664;-60
2022/09/24 06:58:51;;;;;;;;;5.00;4.00;;;25.15;101419.30;;;;117031;1193;24957;-60
2022/09/24 07:01:20;;;;;;;;;6.67;6.33;;;25.18;101421.45;;;;117045;1193;24917;-60
2022/09/24 07:03:49;;;;;;;;;8.33;6.00;;;25.18;101423.55;;;;117123;1191;24783;-58
2022/09/24 07:06:18;;;;;;;;;10.00;7.00;;;25.21;101424.61;;;;117128;1191;26522;-58
2022/09/24 07:08:50;;;;;;;;;5.50;4.00;;;25.23;101425.91;;;;117025;1193;24754;-58
2022/09/24 07:11:19;;;;;;;;;4.75;3.25;;;25.26;101428.02;;;;117079;1193;24940;-59
2022/09/24 07:13:48;;;;;;;;;6.50;5.50;;;25.28;101428.67;;;;117071;1193;25088;-58
2022/09/24 07:16:17;;;;;;;;;6.00;5.00;;;25.29;101431.42;;;;117018;1193;25292;-57
2022/09/24 07:18:46;;;;;;;;;5.00;5.00;;;25.31;101435.64;;;;117040;1193;25022;-58
2022/09/24 07:21:14;;;;;;;;;8.00;5.00;;;25.34;101434.58;;;;117072;1192;25024;-58
2022/09/24 07:23:43;;;;;;;;;10.00;5.00;;;25.35;101436.44;;;;117025;1194;25620;-58
2022/09/24 07:26:12;;;;;;;;;6.25;4.25;;;25.36;101435.55;;;;117041;1193;25042;-60
2022/09/24 07:28:41;;;;;;;;;8.33;7.00;;;25.37;101432.48;;;;117015;1193;25154;-58
2022/09/24 07:31:09;;;;;;;;;10.25;7.00;;;25.38;101434.02;;;;117091;1193;25639;-58
2022/09/24 07:33:39;;;;;;;;;7.75;7.00;;;25.38;101430.29;;;;117014;1193;24815;-61
2022/09/24 07:36:08;;;;;;;;;10.33;7.00;;;25.39;101427.92;;;;117099;1193;25705;-63
2022/09/24 07:38:37;;;;;;;;;8.50;6.75;;;25.46;101424.83;;;;116993;1193;24705;-59
2022/09/24 07:41:08;;;;;;;;;8.00;5.25;;;25.47;101425.00;;;;117072;1193;24965;-63
2022/09/24 07:43:37;;;;;;;;;10.67;9.67;;;25.51;101428.03;;;;117050;1192;25643;-62
2022/09/24 07:46:06;;;;;;;;;6.50;6.50;;;25.53;101431.31;;;;117114;1192;24997;-61
2022/09/24 07:48:35;;;;;;;;;8.00;6.67;;;25.58;101431.64;;;;117053;1192;25681;-62
2022/09/24 07:51:05;;;;;;;;;9.00;7.00;;;25.61;101433.37;;;;117042;1193;25435;-65
2022/09/24 07:53:34;;;;;;;;;7.75;5.75;;;25.63;101437.89;;;;117117;1193;25681;-70
2022/09/24 07:56:03;;;;;;;;;6.50;6.00;;;25.68;101442.96;;;;117027;1193;25438;-72
2022/09/24 07:58:32;;;;;;;;;6.75;6.00;;;25.70;101444.52;;;;117023;1193;25343;-71
2022/09/24 08:01:01;;;;;;;;;7.00;5.67;;;25.75;101444.48;;;;117094;1193;25286;-64
2022/09/24 08:03:31;;;;;;;;;6.50;6.00;;;25.80;101446.11;;;;117049;1193;25050;-70
2022/09/24 08:06:00;;;;;;;;;8.50;5.50;;;25.83;101445.21;;;;117196;1191;24924;-65
2022/09/24 08:08:29;;;;;;;;;8.50;6.75;;;25.91;101443.87;;;;116906;1192;24942;-66
2022/09/24 08:11:02;;;;;;;;;7.00;7.00;;;25.96;101445.30;;;;116908;1192;25519;-66
2022/09/24 08:13:33;;;;;;;;;8.25;8.25;;;25.97;101447.52;;;;116949;1191;25055;-68
2022/09/24 08:16:03;;;;;;;;;7.33;4.00;;;25.97;101445.32;;;;117115;1192;24994;-63
2022/09/24 08:18:32;;;;;;;;;8.75;6.50;;;25.94;101449.45;;;;117148;1191;25073;-63
2022/09/24 08:21:08;;;;;;;;;6.25;6.25;;;25.96;101448.31;;;;117129;1192;24710;-65
2022/09/24 08:23:41;;;;;;;;;6.00;5.33;;;25.98;101453.48;;;;117132;1192;25126;-63
2022/09/24 08:26:11;;;;;;;;;7.00;5.67;;;25.99;101457.08;;;;117062;1192;24717;-61
2022/09/24 08:28:40;;;;;;;;;5.75;5.50;;;25.99;101454.73;;;;117087;1192;24896;-64
2022/09/24 08:31:11;;;;;;;;;9.25;6.25;;;25.99;101457.52;;;;117091;1192;25677;-63
2022/09/24 08:33:40;;;;;;;;;8.00;5.50;;;25.98;101454.66;;;;116944;1193;25176;-64
2022/09/24 08:36:10;;;;;;;;;7.50;6.00;;;25.97;101454.95;;;;117119;1192;25740;-65
2022/09/24 08:38:39;;;;;;;;;5.25;5.25;;;25.95;101449.63;;;;117048;1193;25028;-65
2022/09/24 08:41:11;;;;;;;;;7.50;5.75;;;25.98;101449.34;;;;117113;1192;25360;-62
2022/09/24 08:43:58;;;;;;;;;8.00;4.00;;;25.96;101447.65;;;;117050;1193;25478;-63
2022/09/24 08:49:45;;;;;;;;;6.00;5.00;;;25.95;101444.44;;;;117100;1193;25164;-63
2022/09/24 08:52:26;;;;;;;;;5.67;5.00;;;25.95;101437.64;;;;117100;1191;25377;-63
2022/09/24 08:54:57;;;;;;;;;6.33;4.67;;;25.90;101439.34;;;;117234;1191;25454;-63
2022/09/24 08:57:27;;;;;;;;;7.50;5.00;;;25.93;101437.02;;;;117125;1192;25668;-63
2022/09/24 08:59:55;;;;;;;;;10.25;7.25;;;25.95;101438.43;;;;117074;1192;25043;-65
2022/09/24 09:02:45;;;;;;;;;7.00;6.00;;;25.94;101438.73;;;;116990;1193;25375;-65
2022/09/24 09:05:28;;;;;;;;;10.00;7.25;;;25.96;101436.87;;;;117077;1192;25089;-63
2022/09/24 09:08:07;;;;;;;;;7.50;4.00;;;25.97;101435.80;;;;117037;1193;25427;-64
2022/09/24 09:11:02;;;;;;;;;6.00;5.67;;;26.04;101433.88;;;;117040;1193;25069;-63
2022/09/24 09:13:39;;;;;;;;;7.33;5.00;;;26.02;101432.52;;;;117123;1191;25262;-64
2022/09/24 09:16:47;;;;;;;;;6.25;5.00;;;26.00;101434.48;;;;117061;1191;25464;-65
2022/09/24 09:19:17;;;;;;;;;5.25;4.00;;;26.08;101430.52;;;;116955;1191;25626;-63
2022/09/24 09:21:56;;;;;;;;;6.00;6.00;;;26.04;101431.54;;;;116872;1194;25316;-63
2022/09/24 09:24:35;;;;;;;;;11.50;5.25;;;26.01;101435.59;;;;117013;1192;25511;-65
2022/09/24 09:27:11;;;;;;;;;4.75;4.25;;;26.02;101431.83;;;;117075;1192;25654;-65
2022/09/24 09:29:41;;;;;;;;;4.25;4.25;;;26.01;101434.47;;;;117106;1192;25567;-65
2022/09/24 09:32:21;;;;;;;;;7.33;6.33;;;26.00;101434.27;;;;117020;1193;25458;-65
2022/09/24 09:35:10;;;;;;;;;7.00;4.00;;;25.95;101437.38;;;;117027;1193;24943;-65
2022/09/24 09:37:52;;;;;;;;;7.75;5.00;;;25.99;101441.91;;;;117025;1193;25078;-65
2022/09/24 09:40:33;;;;;;;;;12.50;7.00;;;25.98;101442.45;;;;117119;1192;25569;-65
2022/09/24 09:43:08;;;;;;;;;6.75;6.75;;;25.97;101443.09;;;;117118;1191;25003;-61
2022/09/24 09:46:10;;;;;;;;;7.25;5.75;;;25.98;101442.45;;;;117037;1193;25432;-61
2022/09/24 09:48:51;;;;;;;;;8.00;5.67;;;25.99;101436.76;;;;117125;1193;24882;-61
2022/09/24 09:51:36;;;;;;;;;6.75;6.25;;;25.98;101433.52;;;;116987;1192;24888;-62
2022/09/24 09:54:04;;;;;;;;;2.00;0.00;;;26.03;101431.70;;;;117071;1193;25161;-69
2022/09/24 09:56:45;;;;;;;;;3.33;2.00;;;26.05;101432.20;;;;117143;1192;25544;-65
2022/09/24 09:59:21;;;;;;;;;7.00;5.25;;;26.04;101429.36;;;;117126;1193;24809;-60
2022/09/24 10:01:56;;;;;;;;;7.25;6.50;;;26.03;101433.64;;;;117097;1192;24819;-59
2022/09/24 10:04:40;;;;;;;;;7.00;6.00;;;26.01;101430.14;;;;116914;1193;24940;-59
2022/09/24 10:07:12;;;;;;;;;7.50;5.50;;;26.00;101427.09;;;;117046;1192;25809;-59
2022/09/24 10:09:43;;;;;;;;;9.00;5.75;;;25.97;101426.09;;;;116998;1193;24777;-61
2022/09/24 10:12:23;;;;;;;;;5.50;5.50;;;25.96;101428.81;;;;116827;1193;25398;-60
2022/09/24 10:15:05;;;;;;;;;7.67;5.33;;;25.96;101430.11;;;;117029;1193;25495;-59
2022/09/24 10:17:37;;;;;;;;;4.50;3.75;;;25.94;101428.80;;;;117004;1192;25122;-59
2022/09/24 10:20:26;;;;;;;;;7.50;5.50;;;25.93;101424.63;;;;117108;1193;24859;-61
2022/09/24 10:23:19;;;;;;;;;5.67;4.00;;;25.97;101423.84;;;;117111;1193;25785;-60
2022/09/24 10:25:58;;;;;;;;;4.50;4.50;;;25.97;101428.24;;;;117070;1193;25399;-60
2022/09/24 10:31:23;;;;;;;;;6.00;6.00;;;25.95;101422.20;;;;117032;1193;25186;-60
2022/09/24 10:33:54;;;;;;;;;5.75;4.25;;;25.91;101416.98;;;;117011;1194;25293;-59
2022/09/24 10:36:26;;;;;;;;;8.25;5.25;;;25.88;101417.45;;;;116978;1194;25481;-60
2022/09/24 10:39:12;;;;;;;;;4.00;4.00;;;25.87;101413.42;;;;116995;1193;25662;-60
2022/09/24 10:41:48;;;;;;;;;5.50;4.50;;;25.89;101404.83;;;;116990;1193;25676;-60
2022/09/24 10:44:19;;;;;;;;;4.33;4.33;;;25.89;101401.34;;;;117023;1193;24834;-60
2022/09/24 10:46:57;;;;;;;;;5.00;4.67;;;25.88;101396.98;;;;117073;1192;25415;-60
2022/09/24 10:49:28;;;;;;;;;7.25;5.25;;;25.86;101390.33;;;;117114;1193;24819;-61
2022/09/24 10:52:19;;;;;;;;;6.67;4.00;;;25.84;101390.02;;;;117097;1192;25646;-62
2022/09/24 10:55:17;;;;;;;;;7.50;4.00;;;25.84;101392.26;;;;117093;1192;25406;-60
2022/09/24 10:57:54;;;;;;;;;4.75;4.50;;;25.86;101391.65;;;;116988;1193;25177;-61
2022/09/24 11:01:06;;;;;;;;;4.50;3.25;;;25.88;101387.98;;;;117043;1193;25361;-60
2022/09/24 11:03:53;;;;;;;;;7.50;5.75;;;25.96;101380.77;;;;116870;1193;25735;-61
2022/09/24 11:06:40;;;;;;;;;7.00;5.50;;;25.96;101377.11;;;;117108;1192;24833;-61
2022/09/24 11:09:19;;;;;;;;;5.67;4.67;;;25.91;101381.91;;;;117008;1193;25108;-61
2022/09/24 11:12:04;;;;;;;;;4.00;2.75;;;25.87;101384.27;;;;117034;1193;25158;-61
2022/09/24 11:14:58;;;;;;;;;8.50;4.50;;;25.86;101379.08;;;;117016;1193;26213;-62
2022/09/24 11:17:34;;;;;;;;;9.00;5.67;;;25.84;101379.59;;;;117040;1193;24747;-60
2022/09/24 11:20:31;;;;;;;;;7.25;3.75;;;25.84;101377.55;;;;117035;1193;25089;-60
2022/09/24 11:23:25;;;;;;;;;5.25;3.75;;;25.87;101375.27;;;;117026;1194;24684;-60
2022/09/24 11:26:18;;;;;;;;;4.50;3.00;;;25.87;101375.03;;;;117066;1193;25019;-61
2022/09/24 11:29:09;;;;;;;;;3.00;1.25;;;25.82;101375.04;;;;117033;1193;25159;-62
2022/09/24 11:31:43;;;;;;;;;3.25;3.25;;;25.83;101371.04;;;;117095;1193;25259;-60
2022/09/24 11:34:49;;;;;;;;;6.33;4.00;;;25.80;101372.16;;;;117055;1193;25030;-59
2022/09/24 11:37:21;;;;;;;;;3.00;3.00;;;25.84;101370.29;;;;116999;1194;24753;-60
2022/09/24 11:40:24;;;;;;;;;6.67;3.33;;;25.81;101369.76;;;;117104;1192;25110;-60
2022/09/24 11:43:20;;;;;;;;;4.00;3.75;;;25.83;101367.71;;;;117092;1193;25631;-64
2022/09/24 11:45:58;;;;;;;;;4.50;3.00;;;25.75;101368.00;;;;117100;1193;25670;-63
2022/09/24 11:48:58;;;;;;;;;4.75;1.50;;;25.74;101366.95;;;;117094;1192;25174;-61
2022/09/24 11:51:51;;;;;;;;;4.00;2.75;;;25.73;101364.45;;;;117076;1191;25126;-63
2022/09/24 11:54:35;;;;;;;;;3.00;3.00;;;25.74;101363.73;;;;117078;1191;25748;-61
2022/09/24 11:57:17;;;;;;;;;7.00;3.00;;;25.75;101359.33;;;;117094;1191;25353;-61
2022/09/24 12:00:21;;;;;;;;;3.75;3.75;;;25.74;101356.08;;;;117102;1193;24932;-60
2022/09/24 12:03:02;;;;;;;;;3.00;3.00;;;25.77;101362.84;;;;116694;1196;24953;-63
2022/09/24 12:05:42;;;;;;;;;3.33;2.67;;;25.77;101369.00;;;;117176;1191;24800;-63
2022/09/24 12:08:46;;;;;;;;;4.00;2.00;;;25.76;101368.67;;;;117151;1193;25604;-61
2022/09/24 12:11:19;;;;;;;;;5.00;4.67;;;25.81;101369.69;;;;117011;1192;24820;-62
2022/09/24 12:13:55;;;;;;;;;5.00;3.00;;;25.80;101364.20;;;;117121;1193;25309;-60
2022/09/24 12:16:32;;;;;;;;;3.00;3.00;;;25.77;101367.58;;;;117085;1193;25208;-61
2022/09/24 12:19:03;;;;;;;;;4.00;4.00;;;25.74;101363.77;;;;117094;1192;25088;-60
2022/09/24 12:21:39;;;;;;;;;3.00;3.00;;;25.73;101366.48;;;;117086;1193;24935;-61
2022/09/24 12:24:29;;;;;;;;;4.67;3.00;;;25.68;101364.60;;;;117075;1192;24800;-58
2022/09/24 12:27:00;;;;;;;;;7.25;2.75;;;25.73;101368.63;;;;117155;1192;25095;-59
2022/09/24 12:33:08;;;;;;;;;6.75;3.75;;;25.75;101372.31;;;;117121;1193;25581;-59
2022/09/24 12:36:00;;;;;;;;;2.67;2.33;;;25.73;101379.34;;;;117176;1193;25375;-59
2022/09/24 12:38:39;;;;;;;;;4.50;3.75;;;25.73;101373.77;;;;117101;1193;25053;-59
2022/09/24 12:41:15;;;;;;;;;2.75;2.75;;;25.72;101374.67;;;;117086;1191;24924;-62
2022/09/24 12:44:06;;;;;;;;;5.25;4.25;;;25.72;101374.80;;;;117093;1192;25397;-59
2022/09/24 12:46:50;;;;;;;;;5.50;5.00;;;25.73;101376.92;;;;117121;1193;24942;-59